Beaumont, TX

1:39 AM CDT on March 26, 2017 (GMT -0500)
Southeast Texas Regional | | Change Station

Elev 13 ft 29.95 °N, 94.02 °W | Updated 16 minutes ago

Overcast
Overcast
68 °F
Feels Like 68 °F
N
5
Wind Variable Wind from SW

Today
High -- | Low -- °F
--% Chance of Precip.
Yesterday
High -- | Low -- °F
Precip. -- in
Pressure 29.94 in
Visibility 4.0 miles
Clouds Mostly Cloudy 400 ft
Overcast 1800 ft
Dew Point 66 °F
Humidity 93%
Rainfall 0.00 in
Snow Depth Not available.
7:12 AM 7:31 PM
Waning Crescent, 4% visible
SPECI KBPT 260623Z AUTO 22004KT 4SM BR BKN004 OVC018 20/19 A2994 RMK AO2 T02000189
Pressure 29.94 in
Visibility 4.0 miles
Clouds Mostly Cloudy 400 ft
Overcast 1800 ft
Dew Point 66 °F
Humidity 93%
Rainfall 0.00 in
Snow Depth Not available.
7:12 AM 7:31 PM
Waning Crescent, 4% visible
SPECI KBPT 260623Z AUTO 22004KT 4SM BR BKN004 OVC018 20/19 A2994 RMK AO2 T02000189

Get Severe Weather Alerts

Thanks for signing up!

Be on the lookout for a verification email in your inbox.

You'll start receiving the daily forecast at 8 AM.

×

10-Day Weather Forecast

Almanac

Astronomy

Mar. 26, 2017 Rise Set
Actual Time
Civil Twilight
Nautical Twilight
Astronomical Twilight
Moon
Length of Visible Light
Length of Day
Tomorrow will be .
, % of the Moon is Illuminated

Today's Extremes

State Highs State Lows

Community

WunderPhotos

Upload Photos

1,962,540 photos uploaded!

WunderBlog® & News

Nearby

Air Quality

  Air Quality AQ Index Pollutant
Not available.

Snow Depth

Station Depth Elevation

Earthquake Activity

City Distance Mag. Time & Date
Minimum magnitude displayed is 2.5.

Earthquake Activity

City Distance Mag. Time & Date
Minimum magnitude displayed is 2.5.

Coastal Water Temperatures

Place Temperature

Stations

Nearby Weather Stations

Station Location Temp. Windchill Dew Point Humidity Wind Precip. Elev Updated Type
                   

Watches & Warnings

There are currently no watches in effect.